sensor_id;sensor_type;location;lat;lon;timestamp;pressure;altitude;pressure_sealevel;temperature;humidity
5284;BME280;15377;48.540;9.268;2023-05-10T00:01:45;96768.53;;;13.46;100.00
5284;BME280;15377;48.540;9.268;2023-05-10T00:04:11;96773.31;;;13.40;100.00
5284;BME280;15377;48.540;9.268;2023-05-10T00:06:36;96792.16;;;13.47;100.00
5284;BME280;15377;48.540;9.268;2023-05-10T00:09:01;96773.31;;;13.40;100.00
5284;BME280;15377;48.540;9.268;2023-05-10T00:11:27;96777.59;;;13.41;100.00
5284;BME280;15377;48.540;9.268;2023-05-10T00:13:52;96774.06;;;13.46;100.00
5284;BME280;15377;48.540;9.268;2023-05-10T00:16:17;96775.59;;;13.41;100.00
5284;BME280;15377;48.540;9.268;2023-05-10T00:18:43;96774.84;;;13.35;100.00
5284;BME280;15377;48.540;9.268;2023-05-10T00:21:08;96779.63;;;13.35;100.00
5284;BME280;15377;48.540;9.268;2023-05-10T00:23:33;96780.63;;;13.32;100.00
5284;BME280;15377;48.540;9.268;2023-05-10T00:25:59;96784.41;;;13.29;100.00
5284;BME280;15377;48.540;9.268;2023-05-10T00:28:24;96781.63;;;13.29;100.00
5284;BME280;15377;48.540;9.268;2023-05-10T00:30:49;96783.91;;;13.36;100.00
5284;BME280;15377;48.540;9.268;2023-05-10T00:33:15;96781.91;;;13.25;100.00
5284;BME280;15377;48.540;9.268;2023-05-10T00:35:40;96783.66;;;13.23;100.00
5284;BME280;15377;48.540;9.268;2023-05-10T00:38:06;96786.16;;;13.21;100.00
5284;BME280;15377;48.540;9.268;2023-05-10T00:40:31;96783.16;;;13.19;100.00
5284;BME280;15377;48.540;9.268;2023-05-10T00:42:57;96784.16;;;13.27;100.00
5284;BME280;15377;48.540;9.268;2023-05-10T00:45:23;96780.38;;;13.24;100.00
5284;BME280;15377;48.540;9.268;2023-05-10T00:47:48;96791.44;;;13.24;100.00
5284;BME280;15377;48.540;9.268;2023-05-10T00:50:14;96802.47;;;13.30;100.00
5284;BME280;15377;48.540;9.268;2023-05-10T00:52:41;96788.41;;;13.17;100.00
5284;BME280;15377;48.540;9.268;2023-05-10T00:55:07;96795.97;;;13.16;100.00
5284;BME280;15377;48.540;9.268;2023-05-10T00:57:34;96798.25;;;13.18;100.00
5284;BME280;15377;48.540;9.268;2023-05-10T01:00:01;96809.28;;;13.18;100.00
5284;BME280;15377;48.540;9.268;2023-05-10T01:02:28;96795.22;;;13.05;100.00
5284;BME280;15377;48.540;9.268;2023-05-10T01:04:53;96805.78;;;13.12;100.00
5284;BME280;15377;48.540;9.268;2023-05-10T01:07:19;96801.72;;;13.02;100.00
5284;BME280;15377;48.540;9.268;2023-05-10T01:09:45;96804.50;;;13.02;100.00
5284;BME280;15377;48.540;9.268;2023-05-10T01:12:10;96817.31;;;13.05;100.00
5284;BME280;15377;48.540;9.268;2023-05-10T01:14:36;96810.28;;;13.04;100.00
5284;BME280;15377;48.540;9.268;2023-05-10T01:17:01;96811.28;;;13.01;100.00
5284;BME280;15377;48.540;9.268;2023-05-10T01:19:29;96812.53;;;13.05;100.00
5284;BME280;15377;48.540;9.268;2023-05-10T01:33:08;96829.88;;;13.06;100.00
5284;BME280;15377;48.540;9.268;2023-05-10T01:36:14;96833.41;;;13.06;100.00
5284;BME280;15377;48.540;9.268;2023-05-10T01:38:49;96830.13;;;13.02;100.00
5284;BME280;15377;48.540;9.268;2023-05-10T01:41:28;96839.66;;;13.07;100.00
5284;BME280;15377;48.540;9.268;2023-05-10T01:46:58;96836.66;;;13.10;100.00
5284;BME280;15377;48.540;9.268;2023-05-10T01:49:29;96840.41;;;13.02;100.00
5284;BME280;15377;48.540;9.268;2023-05-10T01:52:00;96847.44;;;13.03;100.00
5284;BME280;15377;48.540;9.268;2023-05-10T01:54:29;96847.44;;;13.03;100.00
5284;BME280;15377;48.540;9.268;2023-05-10T01:57:00;96842.91;;;13.00;100.00
5284;BME280;15377;48.540;9.268;2023-05-10T01:59:30;96815.47;;;12.74;100.00
5284;BME280;15377;48.540;9.268;2023-05-10T02:02:01;96854.97;;;12.97;100.00
5284;BME280;15377;48.540;9.268;2023-05-10T02:04:28;96851.41;;;12.91;100.00
5284;BME280;15377;48.540;9.268;2023-05-10T02:06:55;96845.66;;;12.89;100.00
5284;BME280;15377;48.540;9.268;2023-05-10T02:09:22;96866.75;;;12.97;100.00
5284;BME280;15377;48.540;9.268;2023-05-10T02:11:49;96867.78;;;12.94;100.00
5284;BME280;15377;48.540;9.268;2023-05-10T02:14:16;96856.44;;;12.87;100.00
5284;BME280;15377;48.540;9.268;2023-05-10T02:16:44;96871.53;;;12.97;100.00
5284;BME280;15377;48.540;9.268;2023-05-10T02:19:11;96875.00;;;12.92;100.00
5284;BME280;15377;48.540;9.268;2023-05-10T02:21:39;96875.00;;;12.92;100.00
5284;BME280;15377;48.540;9.268;2023-05-10T02:24:06;96878.53;;;12.87;100.00
5284;BME280;15377;48.540;9.268;2023-05-10T02:26:35;96874.50;;;12.88;100.00
5284;BME280;15377;48.540;9.268;2023-05-10T02:29:05;96872.25;;;12.81;100.00
5284;BME280;15377;48.540;9.268;2023-05-10T02:31:31;96856.63;;;12.67;100.00
5284;BME280;15377;48.540;9.268;2023-05-10T02:33:58;96887.03;;;12.78;100.00
5284;BME280;15377;48.540;9.268;2023-05-10T02:36:26;96880.75;;;12.72;100.00
5284;BME280;15377;48.540;9.268;2023-05-10T02:38:53;96884.78;;;12.71;100.00
5284;BME280;15377;48.540;9.268;2023-05-10T02:41:19;96880.47;;;12.70;100.00
5284;BME280;15377;48.540;9.268;2023-05-10T02:43:47;96891.53;;;12.70;100.00
5284;BME280;15377;48.540;9.268;2023-05-10T02:46:13;96884.25;;;12.72;100.00
5284;BME280;15377;48.540;9.268;2023-05-10T02:48:39;96882.00;;;12.71;100.00
5284;BME280;15377;48.540;9.268;2023-05-10T02:51:07;96882.25;;;12.67;100.00
5284;BME280;15377;48.540;9.268;2023-05-10T02:53:35;96882.22;;;12.62;100.00
5284;BME280;15377;48.540;9.268;2023-05-10T02:56:04;96890.50;;;12.62;100.00
5284;BME280;15377;48.540;9.268;2023-05-10T02:58:32;96877.16;;;12.49;100.00
5284;BME280;15377;48.540;9.268;2023-05-10T03:00:57;96884.94;;;12.51;100.00
5284;BME280;15377;48.540;9.268;2023-05-10T03:03:23;96877.63;;;12.42;100.00
5284;BME280;15377;48.540;9.268;2023-05-10T03:05:48;96886.69;;;12.43;100.00
5284;BME280;15377;48.540;9.268;2023-05-10T03:08:14;96888.16;;;12.38;100.00
5284;BME280;15377;48.540;9.268;2023-05-10T03:10:54;96894.16;;;12.31;100.00
5284;BME280;15377;48.540;9.268;2023-05-10T03:13:37;96891.66;;;12.33;100.00
5284;BME280;15377;48.540;9.268;2023-05-10T03:16:22;96893.91;;;12.29;100.00
5284;BME280;15377;48.540;9.268;2023-05-10T03:19:01;96894.41;;;12.39;100.00
5284;BME280;15377;48.540;9.268;2023-05-10T03:21:31;96898.66;;;12.34;100.00
5284;BME280;15377;48.540;9.268;2023-05-10T03:24:07;96900.94;;;12.36;100.00
5284;BME280;15377;48.540;9.268;2023-05-10T03:26:33;96903.69;;;12.36;100.00
5284;BME280;15377;48.540;9.268;2023-05-10T03:28:59;96886.66;;;12.32;100.00
5284;BME280;15377;48.540;9.268;2023-05-10T03:31:25;96895.97;;;12.40;100.00
5284;BME280;15377;48.540;9.268;2023-05-10T03:33:52;96905.22;;;12.37;100.00
5284;BME280;15377;48.540;9.268;2023-05-10T03:36:18;96895.88;;;12.29;100.00
5284;BME280;15377;48.540;9.268;2023-05-10T03:38:44;96910.72;;;12.37;100.00
5284;BME280;15377;48.540;9.268;2023-05-10T03:41:10;96903.44;;;12.34;100.00
5284;BME280;15377;48.540;9.268;2023-05-10T03:43:35;96907.47;;;12.33;100.00
5284;BME280;15377;48.540;9.268;2023-05-10T03:46:03;96919.00;;;12.37;100.00
5284;BME280;15377;48.540;9.268;2023-05-10T03:48:29;96911.47;;;12.32;100.00
5284;BME280;15377;48.540;9.268;2023-05-10T03:50:55;96918.22;;;12.31;100.00
5284;BME280;15377;48.540;9.268;2023-05-10T03:53:20;96906.47;;;12.36;100.00
5284;BME280;15377;48.540;9.268;2023-05-10T03:55:46;96906.13;;;12.23;100.00
5284;BME280;15377;48.540;9.268;2023-05-10T03:58:11;96910.47;;;12.35;100.00
5284;BME280;15377;48.540;9.268;2023-05-10T04:00:37;96917.50;;;12.36;100.00
5284;BME280;15377;48.540;9.268;2023-05-10T04:03:02;96916.00;;;12.35;100.00
5284;BME280;15377;48.540;9.268;2023-05-10T04:05:28;96899.91;;;12.28;100.00
5284;BME280;15377;48.540;9.268;2023-05-10T04:07:53;96909.47;;;12.38;100.00
5284;BME280;15377;48.540;9.268;2023-05-10T04:10:19;96912.97;;;12.33;100.00
5284;BME280;15377;48.540;9.268;2023-05-10T04:12:45;96908.19;;;12.33;100.00
5284;BME280;15377;48.540;9.268;2023-05-10T04:15:11;96913.47;;;12.37;100.00
5284;BME280;15377;48.540;9.268;2023-05-10T04:17:36;96920.03;;;12.45;100.00
5284;BME280;15377;48.540;9.268;2023-05-10T04:20:02;96920.56;;;12.49;100.00
5284;BME280;15377;48.540;9.268;2023-05-10T04:22:28;96914.28;;;12.48;100.00
5284;BME280;15377;48.540;9.268;2023-05-10T04:24:54;96925.09;;;12.52;100.00
5284;BME280;15377;48.540;9.268;2023-05-10T04:27:19;96911.28;;;12.52;100.00
5284;BME280;15377;48.540;9.268;2023-05-10T04:29:45;96915.09;;;12.60;100.00
5284;BME280;15377;48.540;9.268;2023-05-10T04:32:10;96923.63;;;12.62;100.00
5284;BME280;15377;48.540;9.268;2023-05-10T04:34:36;96919.63;;;12.63;100.00
5284;BME280;15377;48.540;9.268;2023-05-10T04:37:02;96914.84;;;12.58;100.00
5284;BME280;15377;48.540;9.268;2023-05-10T04:39:27;96924.16;;;12.66;100.00
5284;BME280;15377;48.540;9.268;2023-05-10T04:41:52;96913.56;;;12.59;100.00
5284;BME280;15377;48.540;9.268;2023-05-10T04:44:18;96930.94;;;12.70;100.00
5284;BME280;15377;48.540;9.268;2023-05-10T04:46:43;96923.63;;;12.62;100.00
5284;BME280;15377;48.540;9.268;2023-05-10T04:49:08;96930.16;;;12.70;100.00
5284;BME280;15377;48.540;9.268;2023-05-10T04:51:34;96942.53;;;12.80;100.00
5284;BME280;15377;48.540;9.268;2023-05-10T04:53:59;96940.50;;;12.75;100.00
5284;BME280;15377;48.540;9.268;2023-05-10T04:56:25;96919.13;;;12.70;100.00
5284;BME280;15377;48.540;9.268;2023-05-10T04:58:50;96932.22;;;12.80;100.00
5284;BME280;15377;48.540;9.268;2023-05-10T05:01:16;96944.81;;;12.87;100.00
5284;BME280;15377;48.540;9.268;2023-05-10T05:03:41;96926.72;;;12.86;100.00
5284;BME280;15377;48.540;9.268;2023-05-10T05:06:07;96945.31;;;12.91;100.00
5284;BME280;15377;48.540;9.268;2023-05-10T05:08:32;96933.75;;;12.87;100.00
5284;BME280;15377;48.540;9.268;2023-05-10T05:10:58;96925.72;;;12.89;100.00
5284;BME280;15377;48.540;9.268;2023-05-10T05:13:24;96930.25;;;12.92;100.00
5284;BME280;15377;48.540;9.268;2023-05-10T05:15:49;96937.81;;;12.97;100.00
5284;BME280;15377;48.540;9.268;2023-05-10T05:18:15;96944.84;;;12.98;100.00
5284;BME280;15377;48.540;9.268;2023-05-10T05:20:40;96952.91;;;12.96;100.00
5284;BME280;15377;48.540;9.268;2023-05-10T05:23:05;96952.59;;;12.94;100.00
5284;BME280;15377;48.540;9.268;2023-05-10T05:25:31;96951.38;;;12.95;100.00
5284;BME280;15377;48.540;9.268;2023-05-10T05:27:56;96959.69;;;13.00;100.00
5284;BME280;15377;48.540;9.268;2023-05-10T05:30:21;96956.66;;;12.98;100.00
5284;BME280;15377;48.540;9.268;2023-05-10T05:32:47;96948.13;;;13.02;100.00
5284;BME280;15377;48.540;9.268;2023-05-10T05:35:12;96956.19;;;13.16;100.00
5284;BME280;15377;48.540;9.268;2023-05-10T05:37:38;96952.19;;;13.23;100.00
5284;BME280;15377;48.540;9.268;2023-05-10T05:40:04;96958.72;;;13.25;100.00
5284;BME280;15377;48.540;9.268;2023-05-10T05:42:30;96965.53;;;13.30;100.00
5284;BME280;15377;48.540;9.268;2023-05-10T05:44:56;96966.53;;;13.27;100.00
5284;BME280;15377;48.540;9.268;2023-05-10T05:47:22;96959.75;;;13.28;100.00
5284;BME280;15377;48.540;9.268;2023-05-10T05:49:47;96963.78;;;13.38;100.00
5284;BME280;15377;48.540;9.268;2023-05-10T05:52:13;96970.31;;;13.40;100.00
5284;BME280;15377;48.540;9.268;2023-05-10T05:54:38;96974.84;;;13.49;100.00
5284;BME280;15377;48.540;9.268;2023-05-10T05:57:03;96969.53;;;13.40;100.00
5284;BME280;15377;48.540;9.268;2023-05-10T05:59:29;96977.88;;;13.51;100.00
5284;BME280;15377;48.540;9.268;2023-05-10T06:01:54;96976.38;;;13.50;100.00
5284;BME280;15377;48.540;9.268;2023-05-10T06:04:20;96981.13;;;13.44;100.00
5284;BME280;15377;48.540;9.268;2023-05-10T06:06:45;96989.16;;;13.42;100.00
5284;BME280;15377;48.540;9.268;2023-05-10T06:09:11;96971.03;;;13.30;100.00
5284;BME280;15377;48.540;9.268;2023-05-10T06:11:36;96985.88;;;13.32;100.00
5284;BME280;15377;48.540;9.268;2023-05-10T06:14:04;96991.66;;;13.40;100.00
5284;BME280;15377;48.540;9.268;2023-05-10T06:16:30;96990.63;;;13.32;100.00
5284;BME280;15377;48.540;9.268;2023-05-10T06:18:56;96989.88;;;13.26;100.00
5284;BME280;15377;48.540;9.268;2023-05-10T06:21:21;96961.94;;;13.02;100.00
5284;BME280;15377;48.540;9.268;2023-05-10T06:23:47;96989.38;;;13.33;100.00
5284;BME280;15377;48.540;9.268;2023-05-10T06:26:12;97004.97;;;13.36;100.00
5284;BME280;15377;48.540;9.268;2023-05-10T06:28:38;97000.22;;;13.42;100.00
5284;BME280;15377;48.540;9.268;2023-05-10T06:31:04;97005.75;;;13.42;100.00
5284;BME280;15377;48.540;9.268;2023-05-10T06:33:30;97005.75;;;13.53;100.00
5284;BME280;15377;48.540;9.268;2023-05-10T06:35:55;97005.75;;;13.53;100.00
5284;BME280;15377;48.540;9.268;2023-05-10T06:38:21;97004.25;;;13.52;100.00
5284;BME280;15377;48.540;9.268;2023-05-10T06:40:46;97013.31;;;13.58;100.00
5284;BME280;15377;48.540;9.268;2023-05-10T06:43:11;97012.31;;;13.61;100.00
5284;BME280;15377;48.540;9.268;2023-05-10T06:45:37;97019.09;;;13.71;100.00
5284;BME280;15377;48.540;9.268;2023-05-10T06:48:02;97011.31;;;13.75;100.00
5284;BME280;15377;48.540;9.268;2023-05-10T06:50:28;97015.09;;;13.88;100.00
5284;BME280;15377;48.540;9.268;2023-05-10T06:52:53;97031.44;;;13.97;100.00
5284;BME280;15377;48.540;9.268;2023-05-10T06:55:19;97014.34;;;13.99;100.00
5284;BME280;15377;48.540;9.268;2023-05-10T06:57:44;97030.44;;;14.28;100.00
5284;BME280;15377;48.540;9.268;2023-05-10T07:00:10;97036.97;;;14.36;100.00
5284;BME280;15377;48.540;9.268;2023-05-10T07:02:36;97028.16;;;14.43;100.00
5284;BME280;15377;48.540;9.268;2023-05-10T07:05:01;97047.47;;;14.70;100.00
5284;BME280;15377;48.540;9.268;2023-05-10T07:07:27;97053.25;;;14.83;100.00
5284;BME280;15377;48.540;9.268;2023-05-10T07:09:52;97044.66;;;14.92;100.00
5284;BME280;15377;48.540;9.268;2023-05-10T07:12:18;97053.88;;;15.16;100.00
5284;BME280;15377;48.540;9.268;2023-05-10T07:14:43;97015.88;;;15.06;100.00
5284;BME280;15377;48.540;9.268;2023-05-10T07:17:09;97049.00;;;15.39;100.00
5284;BME280;15377;48.540;9.268;2023-05-10T07:19:34;97064.31;;;15.56;100.00
5284;BME280;15377;48.540;9.268;2023-05-10T07:22:01;97070.94;;;15.42;100.00
5284;BME280;15377;48.540;9.268;2023-05-10T07:24:26;97066.34;;;15.50;100.00
5284;BME280;15377;48.540;9.268;2023-05-10T07:26:52;97072.69;;;15.40;100.00
5284;BME280;15377;48.540;9.268;2023-05-10T07:29:17;97060.13;;;15.28;100.00
5284;BME280;15377;48.540;9.268;2023-05-10T07:31:42;97072.72;;;15.29;100.00
5284;BME280;15377;48.540;9.268;2023-05-10T07:34:08;97074.25;;;15.30;100.00
5284;BME280;15377;48.540;9.268;2023-05-10T07:36:34;97062.75;;;15.04;100.00
5284;BME280;15377;48.540;9.268;2023-05-10T07:39:00;97069.31;;;14.95;100.00
5284;BME280;15377;48.540;9.268;2023-05-10T07:41:25;97082.69;;;14.86;100.00
5284;BME280;15377;48.540;9.268;2023-05-10T07:43:51;97077.69;;;14.73;100.00
5284;BME280;15377;48.540;9.268;2023-05-10T07:46:16;97084.47;;;14.78;100.00
5284;BME280;15377;48.540;9.268;2023-05-10T07:48:41;97080.69;;;14.86;100.00
5284;BME280;15377;48.540;9.268;2023-05-10T07:51:07;97070.34;;;14.92;100.00
5284;BME280;15377;48.540;9.268;2023-05-10T07:53:34;97090.00;;;14.89;100.00
5284;BME280;15377;48.540;9.268;2023-05-10T07:58:47;97078.59;;;15.14;100.00
5284;BME280;15377;48.540;9.268;2023-05-10T08:01:12;97093.44;;;15.22;100.00
5284;BME280;15377;48.540;9.268;2023-05-10T08:03:37;97095.16;;;15.25;100.00
5284;BME280;15377;48.540;9.268;2023-05-10T08:06:03;97085.81;;;15.28;100.00
5284;BME280;15377;48.540;9.268;2023-05-10T08:08:29;97088.13;;;15.24;100.00
5284;BME280;15377;48.540;9.268;2023-05-10T08:10:54;97093.16;;;15.20;100.00
5284;BME280;15377;48.540;9.268;2023-05-10T08:13:20;97090.63;;;15.33;100.00
5284;BME280;15377;48.540;9.268;2023-05-10T08:15:45;97095.13;;;15.47;100.00
5284;BME280;15377;48.540;9.268;2023-05-10T08:18:11;97102.44;;;15.45;100.00
5284;BME280;15377;48.540;9.268;2023-05-10T08:20:37;97100.88;;;15.55;100.00
5284;BME280;15377;48.540;9.268;2023-05-10T08:23:02;97097.53;;;15.67;100.00
5284;BME280;15377;48.540;9.268;2023-05-10T08:25:27;97103.56;;;15.71;100.00
5284;BME280;15377;48.540;9.268;2023-05-10T08:27:53;97096.44;;;15.81;100.00
5284;BME280;15377;48.540;9.268;2023-05-10T08:30:18;97113.19;;;16.05;100.00
5284;BME280;15377;48.540;9.268;2023-05-10T08:32:44;97102.47;;;15.85;100.00
5284;BME280;15377;48.540;9.268;2023-05-10T08:35:09;97109.06;;;16.17;100.00
5284;BME280;15377;48.540;9.268;2023-05-10T08:37:34;97110.81;;;16.20;100.00
5284;BME280;15377;48.540;9.268;2023-05-10T08:40:00;97108.34;;;16.11;100.00
5284;BME280;15377;48.540;9.268;2023-05-10T08:42:28;97108.47;;;16.30;100.00
5284;BME280;15377;48.540;9.268;2023-05-10T08:44:57;97108.97;;;16.63;100.00
5284;BME280;15377;48.540;9.268;2023-05-10T08:47:24;97115.72;;;16.73;100.00
5284;BME280;15377;48.540;9.268;2023-05-10T08:49:50;97120.78;;;16.93;100.00
5284;BME280;15377;48.540;9.268;2023-05-10T08:52:17;97118.94;;;17.01;100.00
5284;BME280;15377;48.540;9.268;2023-05-10T08:54:43;97126.56;;;17.01;100.00
5284;BME280;15377;48.540;9.268;2023-05-10T08:57:10;97126.94;;;17.10;100.00
5284;BME280;15377;48.540;9.268;2023-05-10T08:59:36;97129.75;;;16.81;100.00
5284;BME280;15377;48.540;9.268;2023-05-10T09:02:04;97128.22;;;17.09;100.00
5284;BME280;15377;48.540;9.268;2023-05-10T09:04:30;97114.88;;;17.02;100.00
5284;BME280;15377;48.540;9.268;2023-05-10T09:06:56;97122.78;;;16.98;100.00
5284;BME280;15377;48.540;9.268;2023-05-10T09:09:23;97124.13;;;17.16;100.00
5284;BME280;15377;48.540;9.268;2023-05-10T09:11:50;97118.16;;;17.06;100.00
5284;BME280;15377;48.540;9.268;2023-05-10T09:14:16;97126.59;;;16.95;100.00
5284;BME280;15377;48.540;9.268;2023-05-10T09:16:42;97132.50;;;16.86;100.00
5284;BME280;15377;48.540;9.268;2023-05-10T09:19:07;97138.31;;;16.88;100.00
5284;BME280;15377;48.540;9.268;2023-05-10T09:21:35;97138.66;;;17.03;100.00
5284;BME280;15377;48.540;9.268;2023-05-10T09:24:04;97127.63;;;16.92;100.00
5284;BME280;15377;48.540;9.268;2023-05-10T09:26:30;97138.34;;;16.83;100.00
5284;BME280;15377;48.540;9.268;2023-05-10T09:28:57;97146.56;;;16.70;100.00
5284;BME280;15377;48.540;9.268;2023-05-10T09:31:22;97142.88;;;16.56;100.00
5284;BME280;15377;48.540;9.268;2023-05-10T09:33:49;97152.63;;;16.33;100.00
5284;BME280;15377;48.540;9.268;2023-05-10T09:36:15;97148.63;;;16.23;100.00
5284;BME280;15377;48.540;9.268;2023-05-10T09:38:51;97148.19;;;16.19;100.00
5284;BME280;15377;48.540;9.268;2023-05-10T09:41:19;97158.19;;;16.33;100.00
5284;BME280;15377;48.540;9.268;2023-05-10T09:43:45;97133.31;;;16.52;100.00
5284;BME280;15377;48.540;9.268;2023-05-10T09:46:11;97140.72;;;16.73;100.00
5284;BME280;15377;48.540;9.268;2023-05-10T09:48:44;97156.66;;;16.97;100.00
5284;BME280;15377;48.540;9.268;2023-05-10T09:51:10;97152.31;;;17.25;100.00
5284;BME280;15377;48.540;9.268;2023-05-10T09:53:36;97133.66;;;17.20;100.00
5284;BME280;15377;48.540;9.268;2023-05-10T09:56:01;97140.22;;;17.65;100.00
5284;BME280;15377;48.540;9.268;2023-05-10T09:58:27;97145.44;;;17.93;100.00
5284;BME280;15377;48.540;9.268;2023-05-10T10:00:52;97144.00;;;18.23;100.00
5284;BME280;15377;48.540;9.268;2023-05-10T10:03:20;97150.78;;;18.28;100.00
5284;BME280;15377;48.540;9.268;2023-05-10T10:05:47;97144.34;;;18.51;100.00
5284;BME280;15377;48.540;9.268;2023-05-10T10:08:13;97136.09;;;18.90;100.00
5284;BME280;15377;48.540;9.268;2023-05-10T10:10:39;97124.56;;;19.38;100.00
5284;BME280;15377;48.540;9.268;2023-05-10T10:13:11;97141.41;;;19.84;100.00
5284;BME280;15377;48.540;9.268;2023-05-10T10:15:37;97135.47;;;19.88;100.00
5284;BME280;15377;48.540;9.268;2023-05-10T10:18:03;97141.34;;;19.97;100.00
5284;BME280;15377;48.540;9.268;2023-05-10T10:20:30;97128.72;;;19.83;100.00
5284;BME280;15377;48.540;9.268;2023-05-10T10:22:55;97140.88;;;19.47;100.00
5284;BME280;15377;48.540;9.268;2023-05-10T10:25:21;97143.28;;;18.85;100.00
5284;BME280;15377;48.540;9.268;2023-05-10T10:30:39;97147.53;;;18.24;100.00
5284;BME280;15377;48.540;9.268;2023-05-10T10:33:28;97155.00;;;17.79;100.00
5284;BME280;15377;48.540;9.268;2023-05-10T10:35:59;97161.72;;;17.46;100.00
5284;BME280;15377;48.540;9.268;2023-05-10T10:38:25;97163.06;;;17.10;100.00
5284;BME280;15377;48.540;9.268;2023-05-10T10:41:09;97167.34;;;16.87;100.00
5284;BME280;15377;48.540;9.268;2023-05-10T10:43:34;97159.56;;;16.56;100.00
5284;BME280;15377;48.540;9.268;2023-05-10T10:46:14;97156.38;;;16.36;100.00
5284;BME280;15377;48.540;9.268;2023-05-10T10:49:09;97153.34;;;16.39;100.00
5284;BME280;15377;48.540;9.268;2023-05-10T10:51:38;97154.88;;;16.40;100.00
5284;BME280;15377;48.540;9.268;2023-05-10T10:54:10;97165.94;;;16.46;100.00
5284;BME280;15377;48.540;9.268;2023-05-10T10:56:36;97160.09;;;16.79;100.00
5284;BME280;15377;48.540;9.268;2023-05-10T10:59:01;97160.22;;;17.21;100.00
5284;BME280;15377;48.540;9.268;2023-05-10T11:01:35;97148.94;;;17.32;100.00
5284;BME280;15377;48.540;9.268;2023-05-10T11:06:32;97142.81;;;18.37;100.00
5284;BME280;15377;48.540;9.268;2023-05-10T11:08:59;97146.25;;;18.75;100.00
5284;BME280;15377;48.540;9.268;2023-05-10T11:11:24;97150.59;;;18.57;100.00
5284;BME280;15377;48.540;9.268;2023-05-10T11:13:50;97148.06;;;18.41;100.00
5284;BME280;15377;48.540;9.268;2023-05-10T11:16:21;97151.09;;;18.24;100.00
5284;BME280;15377;48.540;9.268;2023-05-10T11:19:07;97153.66;;;18.22;100.00
5284;BME280;15377;48.540;9.268;2023-05-10T11:21:45;97152.50;;;18.12;100.00
5284;BME280;15377;48.540;9.268;2023-05-10T11:24:16;97156.97;;;18.39;100.00
5284;BME280;15377;48.540;9.268;2023-05-10T11:26:42;97184.22;;;18.09;100.00
5284;BME280;15377;48.540;9.268;2023-05-10T11:29:07;97180.25;;;16.55;100.00
5284;BME280;15377;48.540;9.268;2023-05-10T11:31:33;97189.66;;;15.27;100.00
5284;BME280;15377;48.540;9.268;2023-05-10T11:33:59;97202.59;;;14.54;100.00
5284;BME280;15377;48.540;9.268;2023-05-10T11:36:28;97199.22;;;14.06;100.00
5284;BME280;15377;48.540;9.268;2023-05-10T11:38:55;97215.69;;;13.73;100.00
5284;BME280;15377;48.540;9.268;2023-05-10T11:41:22;97212.31;;;13.47;100.00
5284;BME280;15377;48.540;9.268;2023-05-10T11:43:50;97217.69;;;13.19;100.00
5284;BME280;15377;48.540;9.268;2023-05-10T11:46:18;97214.31;;;13.04;100.00
5284;BME280;15377;48.540;9.268;2023-05-10T11:48:45;97214.34;;;13.10;100.00
5284;BME280;15377;48.540;9.268;2023-05-10T11:51:11;97216.06;;;13.02;100.00
5284;BME280;15377;48.540;9.268;2023-05-10T11:53:37;97216.31;;;12.98;100.00
5284;BME280;15377;48.540;9.268;2023-05-10T11:58:30;97211.44;;;12.88;100.00
5284;BME280;15377;48.540;9.268;2023-05-10T12:00:56;97207.06;;;12.76;100.00
5284;BME280;15377;48.540;9.268;2023-05-10T12:03:21;97158.53;;;12.64;100.00
5284;BME280;15377;48.540;9.268;2023-05-10T12:05:47;97194.06;;;12.82;100.00
5284;BME280;15377;48.540;9.268;2023-05-10T12:08:14;97183.00;;;12.82;100.00
5284;BME280;15377;48.540;9.268;2023-05-10T12:10:40;97187.91;;;12.98;100.00
5284;BME280;15377;48.540;9.268;2023-05-10T12:13:05;97204.63;;;13.20;100.00
5284;BME280;15377;48.540;9.268;2023-05-10T12:15:35;97208.50;;;13.39;100.00
5284;BME280;15377;48.540;9.268;2023-05-10T12:18:00;97197.22;;;13.48;100.00
5284;BME280;15377;48.540;9.268;2023-05-10T12:20:27;97192.28;;;13.68;100.00
5284;BME280;15377;48.540;9.268;2023-05-10T12:22:54;97170.22;;;13.74;100.00
5284;BME280;15377;48.540;9.268;2023-05-10T12:25:21;97185.34;;;13.95;100.00
5284;BME280;15377;48.540;9.268;2023-05-10T12:27:49;97203.53;;;14.18;100.00
5284;BME280;15377;48.540;9.268;2023-05-10T12:30:35;97201.81;;;14.42;100.00
5284;BME280;15377;48.540;9.268;2023-05-10T12:33:11;97201.31;;;14.60;100.00
5284;BME280;15377;48.540;9.268;2023-05-10T12:35:50;97209.13;;;14.94;100.00
5284;BME280;15377;48.540;9.268;2023-05-10T12:38:43;97200.00;;;15.21;100.00
5284;BME280;15377;48.540;9.268;2023-05-10T12:41:10;97204.78;;;15.37;100.00
5284;BME280;15377;48.540;9.268;2023-05-10T12:43:36;97201.00;;;15.46;100.00
5284;BME280;15377;48.540;9.268;2023-05-10T12:48:31;97195.72;;;15.99;100.00
5284;BME280;15377;48.540;9.268;2023-05-10T12:50:56;97190.88;;;16.11;100.00
5284;BME280;15377;48.540;9.268;2023-05-10T12:53:22;97216.53;;;16.22;100.00
5284;BME280;15377;48.540;9.268;2023-05-10T12:55:48;97213.19;;;16.40;100.00
5284;BME280;15377;48.540;9.268;2023-05-10T12:58:13;97218.75;;;16.40;100.00
5284;BME280;15377;48.540;9.268;2023-05-10T13:00:39;97211.16;;;16.41;100.00
5284;BME280;15377;48.540;9.268;2023-05-10T13:03:04;97213.50;;;16.66;100.00
5284;BME280;15377;48.540;9.268;2023-05-10T13:05:33;97210.06;;;16.84;100.00
5284;BME280;15377;48.540;9.268;2023-05-10T13:07:58;97204.56;;;16.79;100.00
5284;BME280;15377;48.540;9.268;2023-05-10T13:10:24;97217.19;;;17.09;100.00
5284;BME280;15377;48.540;9.268;2023-05-10T13:12:50;97207.75;;;17.47;100.00
5284;BME280;15377;48.540;9.268;2023-05-10T13:15:16;97208.22;;;17.22;100.00
5284;BME280;15377;48.540;9.268;2023-05-10T13:17:41;97210.53;;;17.47;100.00
5284;BME280;15377;48.540;9.268;2023-05-10T13:20:08;97212.28;;;17.69;100.00
5284;BME280;15377;48.540;9.268;2023-05-10T13:22:35;97211.63;;;17.81;100.00
5284;BME280;15377;48.540;9.268;2023-05-10T13:25:00;97212.47;;;17.76;100.00
5284;BME280;15377;48.540;9.268;2023-05-10T13:27:25;97196.31;;;17.51;100.00